createdAt,value
2023-04-17T00:01:56.229Z,4.13
2023-04-17T00:04:24.830Z,4.57
2023-04-17T00:06:54.660Z,4.23
2023-04-17T00:09:23.210Z,4.73
2023-04-17T00:11:51.716Z,7.67
2023-04-17T00:14:20.124Z,4.03
2023-04-17T00:16:49.182Z,4.93
2023-04-17T00:19:18.024Z,3.50
2023-04-17T00:21:46.617Z,3.47
2023-04-17T00:24:15.393Z,3.00
2023-04-17T00:26:44.100Z,3.10
2023-04-17T00:29:12.861Z,3.10
2023-04-17T00:31:41.513Z,6.53
2023-04-17T00:34:10.590Z,3.50
2023-04-17T00:36:39.197Z,2.90
2023-04-17T00:39:07.696Z,3.90
2023-04-17T00:41:36.798Z,4.10
2023-04-17T00:44:05.583Z,2.47
2023-04-17T00:46:35.131Z,2.77
2023-04-17T00:49:03.939Z,4.20
2023-04-17T00:51:33.638Z,2.00
2023-04-17T00:54:02.208Z,2.90
2023-04-17T00:56:30.875Z,2.63
2023-04-17T00:59:03.021Z,3.60
2023-04-17T01:01:31.596Z,6.00
2023-04-17T01:04:02.885Z,3.10
2023-04-17T01:06:32.511Z,3.90
2023-04-17T01:09:01.527Z,2.37
2023-04-17T01:11:30.161Z,3.30
2023-04-17T01:13:58.796Z,4.53
2023-04-17T01:16:28.726Z,6.73
2023-04-17T01:18:57.226Z,5.60
2023-04-17T01:21:26.098Z,4.83
2023-04-17T01:23:54.676Z,2.73
2023-04-17T01:26:29.107Z,2.87
2023-04-17T01:28:59.716Z,4.47
2023-04-17T01:31:30.239Z,4.60
2023-04-17T01:33:59.131Z,4.20
2023-04-17T01:36:29.113Z,4.80
2023-04-17T01:38:57.542Z,2.60
2023-04-17T01:41:25.999Z,6.30
2023-04-17T01:43:54.738Z,6.43
2023-04-17T01:46:23.330Z,4.27
2023-04-17T01:48:52.004Z,3.73
2023-04-17T01:51:20.439Z,5.83
2023-04-17T01:53:49.129Z,6.07
2023-04-17T01:56:18.098Z,3.57
2023-04-17T01:58:46.709Z,4.00
2023-04-17T02:01:15.303Z,3.40
2023-04-17T02:03:44.029Z,3.63
2023-04-17T02:06:13.972Z,5.60
2023-04-17T02:08:42.902Z,6.70
2023-04-17T02:11:11.387Z,5.03
2023-04-17T02:13:39.791Z,7.40
2023-04-17T02:16:08.728Z,8.03
2023-04-17T02:18:37.256Z,5.07
2023-04-17T02:21:05.695Z,4.97
2023-04-17T02:23:34.130Z,5.53
2023-04-17T02:26:03.036Z,6.88
2023-04-17T02:28:31.943Z,4.70
2023-04-17T02:31:00.762Z,7.33
2023-04-17T02:33:29.318Z,7.53
2023-04-17T02:35:57.767Z,5.70
2023-04-17T02:38:26.237Z,8.60
2023-04-17T02:40:54.751Z,6.13
2023-04-17T02:43:23.243Z,8.20
2023-04-17T02:45:52.248Z,4.80
2023-04-17T02:48:20.745Z,8.50
2023-04-17T02:50:49.413Z,5.40
2023-04-17T02:53:18.029Z,4.30
2023-04-17T02:55:46.620Z,4.60
2023-04-17T02:58:15.074Z,7.17
2023-04-17T03:00:43.636Z,7.10
2023-04-17T03:03:12.522Z,7.53
2023-04-17T03:05:41.080Z,13.43
2023-04-17T03:08:09.585Z,11.43
2023-04-17T03:10:38.459Z,7.63
2023-04-17T03:13:07.189Z,12.83
2023-04-17T03:15:37.210Z,8.17
2023-04-17T03:18:06.347Z,6.90
2023-04-17T03:20:35.043Z,11.60
2023-04-17T03:23:03.515Z,4.37
2023-04-17T03:25:32.021Z,9.75
2023-04-17T03:28:00.891Z,6.60
2023-04-17T03:30:29.327Z,4.43
2023-04-17T03:32:57.922Z,13.57
2023-04-17T03:35:26.549Z,6.70
2023-04-17T03:37:55.101Z,4.80
2023-04-17T03:40:23.612Z,6.97
2023-04-17T03:42:52.099Z,8.70
2023-04-17T03:45:20.900Z,5.73
2023-04-17T03:47:49.360Z,6.73
2023-04-17T03:50:17.959Z,7.53
2023-04-17T03:52:46.560Z,5.70
2023-04-17T03:55:15.114Z,8.57
2023-04-17T03:57:43.952Z,7.93
2023-04-17T04:00:13.163Z,12.20
2023-04-17T04:02:41.811Z,8.63
2023-04-17T04:05:10.631Z,7.53
2023-04-17T04:07:39.117Z,6.70
2023-04-17T04:10:08.143Z,7.30
2023-04-17T04:12:36.547Z,8.97
2023-04-17T04:15:05.419Z,10.20
2023-04-17T04:17:33.917Z,5.80
2023-04-17T04:20:02.455Z,7.10
2023-04-17T04:22:31.481Z,6.90
2023-04-17T04:25:00.547Z,12.40
2023-04-17T04:27:33.608Z,10.77
2023-04-17T04:30:02.734Z,13.13
2023-04-17T04:32:31.643Z,9.07
2023-04-17T04:35:02.692Z,9.80
2023-04-17T04:37:31.430Z,8.83
2023-04-17T04:40:02.996Z,9.70
2023-04-17T04:42:32.344Z,11.07
2023-04-17T04:45:00.754Z,6.97
2023-04-17T04:47:29.234Z,9.53
2023-04-17T04:49:57.919Z,10.80
2023-04-17T04:52:27.303Z,7.77
2023-04-17T04:54:55.801Z,7.37
2023-04-17T04:57:24.331Z,7.17
2023-04-17T04:59:52.799Z,10.33
2023-04-17T05:02:22.160Z,13.70
2023-04-17T05:04:50.844Z,9.50
2023-04-17T05:07:19.436Z,8.40
2023-04-17T05:09:47.855Z,9.43
2023-04-17T05:12:16.819Z,10.75
2023-04-17T05:14:45.322Z,7.00
2023-04-17T05:17:13.748Z,12.23
2023-04-17T05:19:42.192Z,9.00
2023-04-17T05:22:10.613Z,9.93
2023-04-17T05:24:39.067Z,6.67
2023-04-17T05:27:07.790Z,9.73
2023-04-17T05:29:38.161Z,7.80
2023-04-17T05:32:06.830Z,7.27
2023-04-17T05:34:35.621Z,9.10
2023-04-17T05:37:04.297Z,9.03
2023-04-17T05:39:32.966Z,9.67
2023-04-17T05:42:02.409Z,7.70
2023-04-17T05:44:31.178Z,11.60
2023-04-17T05:47:02.869Z,8.20
2023-04-17T05:49:31.585Z,8.93
2023-04-17T05:52:00.190Z,11.10
2023-04-17T05:54:31.048Z,10.40
2023-04-17T05:56:59.451Z,8.50
2023-04-17T05:59:28.676Z,7.30
2023-04-17T06:01:57.161Z,7.73
2023-04-17T06:04:25.901Z,9.63
2023-04-17T06:06:54.508Z,11.00
2023-04-17T06:09:25.189Z,11.37
2023-04-17T06:11:54.578Z,10.80
2023-04-17T06:14:23.240Z,10.97
2023-04-17T06:16:51.983Z,9.27
2023-04-17T06:19:20.611Z,6.40
2023-04-17T06:21:49.364Z,10.17
2023-04-17T06:24:19.666Z,6.67
2023-04-17T06:26:48.432Z,11.07
2023-04-17T06:29:16.923Z,8.30
2023-04-17T06:31:45.388Z,10.63
2023-04-17T06:34:13.858Z,7.03
2023-04-17T06:36:42.363Z,10.73
2023-04-17T06:39:11.069Z,9.67
2023-04-17T06:41:39.690Z,11.83
2023-04-17T06:44:09.359Z,7.07
2023-04-17T06:46:37.860Z,10.33
2023-04-17T06:49:06.330Z,8.80
2023-04-17T06:51:34.796Z,7.43
2023-04-17T06:54:03.238Z,6.50
2023-04-17T06:56:31.930Z,8.88
2023-04-17T06:59:01.377Z,6.53
2023-04-17T07:01:32.359Z,6.43
2023-04-17T07:04:00.912Z,6.70
2023-04-17T07:06:30.537Z,10.30
2023-04-17T07:08:59.055Z,6.83
2023-04-17T07:11:27.457Z,8.30
2023-04-17T07:13:55.979Z,11.93
2023-04-17T07:16:24.726Z,9.97
2023-04-17T07:18:53.853Z,6.50
2023-04-17T07:21:22.273Z,13.43
2023-04-17T07:23:50.720Z,8.82
2023-04-17T07:26:19.175Z,7.30
2023-04-17T07:28:47.777Z,6.27
2023-04-17T07:31:16.503Z,6.53
2023-04-17T07:33:45.214Z,11.47
2023-04-17T07:36:13.962Z,9.20
2023-04-17T07:38:43.095Z,9.40
2023-04-17T07:41:13.195Z,13.80
2023-04-17T07:43:42.003Z,10.57
2023-04-17T07:46:10.468Z,11.85
2023-04-17T07:48:39.010Z,9.27
2023-04-17T07:51:08.511Z,8.10
2023-04-17T07:53:38.093Z,7.00
2023-04-17T07:56:07.407Z,9.87
2023-04-17T07:58:37.848Z,12.20
2023-04-17T08:01:09.276Z,18.60
2023-04-17T08:03:38.204Z,16.20
2023-04-17T08:06:07.084Z,12.30
2023-04-17T08:08:35.558Z,18.47
2023-04-17T08:11:04.301Z,15.13
2023-04-17T08:13:33.166Z,15.63
2023-04-17T08:16:02.341Z,18.83
2023-04-17T08:18:30.841Z,15.60
2023-04-17T08:20:59.270Z,9.43
2023-04-17T08:23:27.936Z,14.90
2023-04-17T08:25:56.485Z,17.57
2023-04-17T08:28:25.556Z,11.40
2023-04-17T08:30:54.037Z,16.70
2023-04-17T08:33:22.587Z,11.80
2023-04-17T08:35:51.215Z,12.07
2023-04-17T08:38:19.651Z,11.67
2023-04-17T08:40:52.748Z,15.80
2023-04-17T08:43:23.010Z,9.87
2023-04-17T08:45:56.301Z,11.57
2023-04-17T08:48:25.671Z,10.60
2023-04-17T08:50:55.261Z,10.55
2023-04-17T08:53:23.750Z,11.47
2023-04-17T08:55:52.293Z,17.90
2023-04-17T08:58:22.768Z,9.37
2023-04-17T09:00:52.336Z,10.03
2023-04-17T09:03:21.030Z,12.80
2023-04-17T09:05:49.919Z,10.43
2023-04-17T09:08:21.454Z,7.88
2023-04-17T09:10:52.378Z,9.73
2023-04-17T09:13:22.863Z,11.57
2023-04-17T09:16:06.981Z,9.77
2023-04-17T09:18:36.806Z,14.55
2023-04-17T09:21:07.336Z,7.10
2023-04-17T09:24:06.310Z,10.97
2023-04-17T09:26:34.941Z,14.73
2023-04-17T09:29:12.567Z,23.33
2023-04-17T09:31:43.366Z,27.83
2023-04-17T09:34:13.978Z,37.20
2023-04-17T09:36:44.317Z,45.97
2023-04-17T09:39:21.905Z,44.77
2023-04-17T09:41:50.422Z,26.30
2023-04-17T09:44:30.790Z,23.10
2023-04-17T09:47:00.426Z,18.87
2023-04-17T09:49:40.565Z,17.00
2023-04-17T09:52:10.158Z,21.40
2023-04-17T09:54:40.734Z,15.60
2023-04-17T09:57:11.303Z,12.87
2023-04-17T09:59:42.012Z,12.43
2023-04-17T10:02:13.300Z,13.57
2023-04-17T10:04:43.475Z,18.43
2023-04-17T10:07:14.010Z,11.07
2023-04-17T10:09:43.540Z,10.40
2023-04-17T10:12:20.165Z,16.93
2023-04-17T10:14:53.255Z,12.00
2023-04-17T10:17:26.714Z,13.70
2023-04-17T10:19:57.169Z,10.30
2023-04-17T10:22:25.701Z,7.40
2023-04-17T10:25:13.991Z,6.27
2023-04-17T10:27:42.779Z,7.23
2023-04-17T10:30:16.356Z,9.70
2023-04-17T10:32:47.707Z,6.63
2023-04-17T10:35:19.283Z,8.47
2023-04-17T10:37:53.567Z,6.90
2023-04-17T10:40:22.210Z,10.63
2023-04-17T10:43:05.608Z,6.67
2023-04-17T10:45:52.630Z,7.93
2023-04-17T10:48:37.016Z,8.40
2023-04-17T10:51:23.891Z,8.90
2023-04-17T10:53:53.357Z,7.80
2023-04-17T10:56:31.405Z,6.07
2023-04-17T10:59:04.825Z,10.10
2023-04-17T11:01:44.440Z,9.23
2023-04-17T11:04:28.306Z,7.63
2023-04-17T11:06:56.893Z,10.00
2023-04-17T11:09:28.328Z,7.03
2023-04-17T11:11:59.558Z,7.75
2023-04-17T11:14:29.137Z,7.65
2023-04-17T11:16:57.761Z,6.17
2023-04-17T11:19:27.520Z,9.10
2023-04-17T11:22:02.171Z,5.33
2023-04-17T11:24:32.071Z,6.63
2023-04-17T11:27:04.180Z,5.80
2023-04-17T11:29:32.637Z,5.88
2023-04-17T11:32:02.092Z,7.57
2023-04-17T11:34:31.384Z,6.90
2023-04-17T11:37:01.893Z,5.87
2023-04-17T11:39:32.527Z,8.20
2023-04-17T11:42:04.175Z,5.07
2023-04-17T11:44:32.639Z,5.72
2023-04-17T11:47:02.792Z,8.00
2023-04-17T11:49:38.854Z,7.47
2023-04-17T11:52:07.638Z,11.57
2023-04-17T11:54:38.164Z,4.30
2023-04-17T11:57:12.412Z,10.90
2023-04-17T11:59:43.083Z,6.07
2023-04-17T12:02:12.148Z,6.17
2023-04-17T12:04:42.091Z,5.93
2023-04-17T12:07:24.678Z,5.17
2023-04-17T12:09:58.339Z,6.00
2023-04-17T12:12:26.778Z,6.17
2023-04-17T12:14:55.260Z,4.73
2023-04-17T12:17:23.736Z,4.90
2023-04-17T12:19:52.711Z,9.83
2023-04-17T12:22:21.587Z,7.70
2023-04-17T12:24:50.098Z,5.25
2023-04-17T12:27:18.611Z,4.93
2023-04-17T12:29:47.007Z,4.50
2023-04-17T12:32:16.956Z,8.80
2023-04-17T12:34:45.453Z,4.20
2023-04-17T12:37:13.859Z,3.70
2023-04-17T12:39:42.448Z,6.30
2023-04-17T12:42:10.971Z,7.83
2023-04-17T12:44:39.818Z,4.40
2023-04-17T12:47:08.394Z,4.63
2023-04-17T12:49:36.837Z,4.73
2023-04-17T12:52:05.274Z,3.70
2023-04-17T12:54:33.814Z,3.30
2023-04-17T12:57:02.960Z,4.23
2023-04-17T12:59:31.431Z,5.45
2023-04-17T13:01:59.985Z,6.45
2023-04-17T13:04:28.686Z,8.10
2023-04-17T13:06:57.287Z,4.10
2023-04-17T13:09:25.802Z,4.40
2023-04-17T13:11:54.298Z,3.33
2023-04-17T13:14:22.776Z,2.90
2023-04-17T13:16:51.646Z,2.93
2023-04-17T13:19:20.740Z,4.33
2023-04-17T13:21:49.236Z,4.40
2023-04-17T13:24:27.344Z,3.57
2023-04-17T13:27:00.243Z,4.57
2023-04-17T13:29:29.041Z,3.47
2023-04-17T13:31:57.473Z,3.60
2023-04-17T13:34:25.861Z,4.10
2023-04-17T13:36:55.417Z,5.30
2023-04-17T13:39:23.912Z,4.70
2023-04-17T13:41:52.392Z,5.40
2023-04-17T13:44:20.847Z,4.50
2023-04-17T13:46:49.600Z,3.47
2023-04-17T13:49:18.025Z,3.93
2023-04-17T13:51:46.436Z,4.50
2023-04-17T13:54:14.893Z,4.97
2023-04-17T13:56:43.381Z,3.77
2023-04-17T13:59:12.155Z,3.80
2023-04-17T14:01:40.881Z,4.40
2023-04-17T14:04:10.436Z,4.77
2023-04-17T14:06:39.157Z,5.20
2023-04-17T14:09:08.291Z,5.93
2023-04-17T14:11:36.744Z,5.10
2023-04-17T14:14:05.238Z,4.13
2023-04-17T14:16:33.729Z,3.27
2023-04-17T14:19:12.522Z,2.97
2023-04-17T14:21:42.288Z,3.73
2023-04-17T14:24:11.024Z,3.03
2023-04-17T14:26:40.009Z,4.87
2023-04-17T14:29:08.616Z,5.30
2023-04-17T14:31:37.073Z,5.10
2023-04-17T14:34:05.527Z,3.60
2023-04-17T14:36:36.513Z,7.93
2023-04-17T14:39:05.139Z,5.63
2023-04-17T14:41:34.903Z,4.20
2023-04-17T14:44:03.430Z,3.50
2023-04-17T14:46:32.240Z,4.40
2023-04-17T14:49:00.876Z,4.13
2023-04-17T14:51:30.629Z,3.20
2023-04-17T14:53:59.253Z,3.67
2023-04-17T14:56:27.709Z,3.60
2023-04-17T14:58:56.140Z,4.73
2023-04-17T15:01:24.573Z,4.13
2023-04-17T15:03:53.490Z,5.07
2023-04-17T15:06:22.300Z,10.33
2023-04-17T15:08:50.740Z,5.30
2023-04-17T15:11:19.441Z,4.63
2023-04-17T15:13:47.918Z,4.83
2023-04-17T15:16:16.773Z,5.47
2023-04-17T15:18:45.255Z,4.93
2023-04-17T15:21:13.744Z,5.83
2023-04-17T15:23:42.153Z,4.50
2023-04-17T15:26:10.959Z,3.93
2023-04-17T15:28:39.830Z,3.40
2023-04-17T15:31:08.821Z,3.20
2023-04-17T15:33:38.297Z,3.90
2023-04-17T15:36:06.894Z,3.10
2023-04-17T15:38:35.437Z,3.97
2023-04-17T15:41:04.370Z,3.90
2023-04-17T15:43:32.976Z,3.63
2023-04-17T15:46:02.923Z,4.63
2023-04-17T15:48:31.502Z,4.17
2023-04-17T15:50:59.917Z,3.40
2023-04-17T15:53:28.293Z,4.57
2023-04-17T15:55:57.142Z,4.43
2023-04-17T15:58:25.545Z,3.70
2023-04-17T16:00:53.952Z,3.67
2023-04-17T16:03:23.159Z,3.63
2023-04-17T16:05:53.623Z,5.00
2023-04-17T16:08:22.537Z,4.13
2023-04-17T16:10:51.067Z,4.00
2023-04-17T16:13:19.473Z,5.07
2023-04-17T16:15:47.893Z,3.70
2023-04-17T16:18:16.941Z,3.20
2023-04-17T16:20:46.373Z,3.20
2023-04-17T16:23:14.823Z,3.47
2023-04-17T16:25:43.216Z,4.20
2023-04-17T16:28:11.619Z,3.87
2023-04-17T16:30:39.995Z,5.40
2023-04-17T16:33:08.392Z,3.73
2023-04-17T16:35:37.287Z,4.80
2023-04-17T16:38:05.845Z,2.87
2023-04-17T16:40:34.727Z,6.33
2023-04-17T16:43:03.112Z,4.20
2023-04-17T16:45:31.489Z,3.20
2023-04-17T16:47:59.963Z,5.23
2023-04-17T16:50:28.499Z,7.40
2023-04-17T16:52:56.879Z,4.63
2023-04-17T16:55:25.355Z,5.63
2023-04-17T16:57:54.041Z,3.90
2023-04-17T17:00:22.667Z,4.57
2023-04-17T17:02:51.214Z,6.70
2023-04-17T17:05:19.687Z,5.40
2023-04-17T17:07:48.234Z,7.30
2023-04-17T17:10:16.808Z,5.23
2023-04-17T17:12:45.340Z,6.25
2023-04-17T17:15:13.810Z,5.23
2023-04-17T17:17:42.240Z,4.00
2023-04-17T17:20:12.218Z,3.60
2023-04-17T17:22:40.626Z,3.10
2023-04-17T17:25:09.703Z,4.20
2023-04-17T17:27:38.110Z,4.57
2023-04-17T17:30:07.133Z,10.13
2023-04-17T17:32:35.671Z,3.50
2023-04-17T17:35:04.128Z,4.13
2023-04-17T17:37:32.685Z,3.80
2023-04-17T17:40:01.452Z,5.10
2023-04-17T17:42:29.829Z,4.60
2023-04-17T17:44:58.224Z,4.60
2023-04-17T17:47:26.700Z,5.00
2023-04-17T17:49:55.121Z,7.80
2023-04-17T17:52:23.510Z,6.00
2023-04-17T17:54:51.951Z,6.07
2023-04-17T17:57:20.536Z,4.93
2023-04-17T17:59:49.066Z,7.43
2023-04-17T18:02:17.682Z,10.27
2023-04-17T18:04:46.361Z,4.20
2023-04-17T18:07:15.041Z,4.40
2023-04-17T18:09:43.440Z,5.80
2023-04-17T18:12:11.882Z,5.20
2023-04-17T18:14:40.330Z,4.40
2023-04-17T18:17:08.745Z,4.57
2023-04-17T18:19:41.623Z,4.73
2023-04-17T18:22:10.838Z,5.60
2023-04-17T18:24:39.530Z,6.03
2023-04-17T18:27:07.921Z,4.37
2023-04-17T18:29:36.398Z,6.63
2023-04-17T18:32:04.771Z,6.30
2023-04-17T18:34:33.165Z,3.70
2023-04-17T18:37:01.648Z,7.43
2023-04-17T18:39:30.072Z,4.63
2023-04-17T18:41:59.376Z,4.83
2023-04-17T18:44:27.884Z,10.00
2023-04-17T18:46:56.314Z,8.00
2023-04-17T18:49:24.769Z,4.83
2023-04-17T18:51:53.167Z,5.37
2023-04-17T18:54:22.158Z,4.83
2023-04-17T18:56:50.600Z,5.67
2023-04-17T18:59:21.685Z,5.80
2023-04-17T19:01:50.857Z,5.13
2023-04-17T19:04:19.508Z,6.37
2023-04-17T19:06:47.883Z,5.83
2023-04-17T19:09:16.302Z,6.23
2023-04-17T19:11:44.782Z,6.50
2023-04-17T19:14:13.387Z,5.87
2023-04-17T19:16:42.058Z,5.40
2023-04-17T19:19:12.090Z,5.67
2023-04-17T19:21:40.687Z,5.20
2023-04-17T19:24:09.532Z,4.80
2023-04-17T19:26:37.984Z,5.03
2023-04-17T19:29:06.518Z,4.47
2023-04-17T19:31:35.250Z,5.37
2023-04-17T19:34:03.674Z,4.90
2023-04-17T19:36:32.209Z,5.20
2023-04-17T19:39:00.713Z,5.83
2023-04-17T19:41:29.645Z,9.80
2023-04-17T19:43:58.012Z,6.87
2023-04-17T19:46:28.142Z,6.67
2023-04-17T19:48:56.590Z,5.40
2023-04-17T19:51:24.998Z,6.40
2023-04-17T19:53:54.349Z,7.90
2023-04-17T19:56:22.742Z,6.37
2023-04-17T19:58:51.180Z,7.77
2023-04-17T20:01:19.910Z,6.90
2023-04-17T20:03:48.472Z,9.40
2023-04-17T20:06:17.067Z,6.93
2023-04-17T20:08:45.835Z,7.10
2023-04-17T20:11:16.130Z,6.43
2023-04-17T20:13:44.515Z,7.20
2023-04-17T20:16:12.908Z,6.70
2023-04-17T20:18:42.506Z,6.80
2023-04-17T20:21:10.964Z,4.93
2023-04-17T20:23:39.424Z,6.80
2023-04-17T20:26:07.847Z,7.60
2023-04-17T20:28:36.365Z,5.50
2023-04-17T20:31:05.038Z,7.43
2023-04-17T20:33:33.751Z,3.83
2023-04-17T20:36:02.540Z,2.97
2023-04-17T20:38:31.049Z,2.90
2023-04-17T20:40:59.478Z,2.63
2023-04-17T20:43:27.980Z,2.80
2023-04-17T20:45:56.385Z,4.23
2023-04-17T20:48:25.887Z,3.10
2023-04-17T20:50:54.328Z,2.57
2023-04-17T20:53:22.709Z,3.93
2023-04-17T20:55:51.172Z,3.20
2023-04-17T20:58:20.178Z,3.30
2023-04-17T21:03:22.778Z,5.80
2023-04-17T21:05:51.361Z,3.07
2023-04-17T21:08:19.813Z,2.70
2023-04-17T21:10:48.299Z,2.90
2023-04-17T21:13:16.915Z,3.50
2023-04-17T21:15:45.377Z,4.00
2023-04-17T21:18:13.853Z,3.07
2023-04-17T21:20:42.820Z,2.40
2023-04-17T21:23:11.751Z,3.97
2023-04-17T21:25:40.217Z,3.10
2023-04-17T21:28:08.619Z,3.30
2023-04-17T21:30:38.163Z,3.00
2023-04-17T21:33:06.592Z,2.43
2023-04-17T21:35:37.439Z,2.83
2023-04-17T21:38:06.101Z,2.30
2023-04-17T21:40:36.697Z,2.03
2023-04-17T21:43:05.619Z,2.90
2023-04-17T21:45:34.095Z,3.67
2023-04-17T21:48:02.576Z,2.50
2023-04-17T21:50:31.351Z,2.40
2023-04-17T21:52:59.724Z,2.53
2023-04-17T21:55:28.231Z,2.50
2023-04-17T21:57:56.794Z,5.03
2023-04-17T22:00:25.273Z,3.00
2023-04-17T22:02:53.917Z,3.13
2023-04-17T22:05:22.545Z,2.10
2023-04-17T22:07:55.069Z,3.70
2023-04-17T22:10:24.932Z,2.70
2023-04-17T22:12:53.387Z,2.30
2023-04-17T22:15:22.267Z,2.60
2023-04-17T22:17:51.468Z,2.73
2023-04-17T22:20:20.772Z,2.83
2023-04-17T22:22:49.347Z,2.17
2023-04-17T22:25:18.038Z,3.03
2023-04-17T22:27:46.886Z,2.60
2023-04-17T22:30:15.313Z,2.50
2023-04-17T22:32:43.832Z,2.50
2023-04-17T22:35:12.462Z,4.17
2023-04-17T22:37:41.182Z,2.80
2023-04-17T22:40:10.130Z,2.37
2023-04-17T22:42:38.552Z,2.93
2023-04-17T22:45:07.456Z,2.43
2023-04-17T22:47:35.934Z,2.10
2023-04-17T22:50:04.980Z,2.53
2023-04-17T22:52:33.358Z,2.60
2023-04-17T22:55:02.451Z,2.00
2023-04-17T22:57:30.877Z,2.07
2023-04-17T22:59:59.246Z,2.10
2023-04-17T23:02:27.700Z,2.17
2023-04-17T23:04:56.505Z,2.77
2023-04-17T23:07:24.972Z,2.10
2023-04-17T23:09:53.347Z,1.83
2023-04-17T23:12:21.842Z,2.00
2023-04-17T23:14:50.428Z,2.23
2023-04-17T23:17:18.815Z,2.23
2023-04-17T23:19:47.247Z,2.10
2023-04-17T23:22:15.684Z,2.27
2023-04-17T23:24:44.076Z,1.90
2023-04-17T23:27:12.458Z,1.90
2023-04-17T23:29:40.867Z,1.83
2023-04-17T23:32:09.686Z,1.90
2023-04-17T23:34:42.115Z,2.37
2023-04-17T23:37:10.645Z,2.43
2023-04-17T23:39:39.050Z,2.50
2023-04-17T23:42:08.697Z,3.50
2023-04-17T23:44:37.111Z,2.13
2023-04-17T23:47:05.722Z,2.50
2023-04-17T23:49:36.829Z,2.43
2023-04-17T23:52:05.450Z,3.00
2023-04-17T23:54:33.886Z,3.10
2023-04-17T23:57:02.976Z,5.60
2023-04-17T23:59:31.413Z,3.03
